sensor_id;sensor_type;location;lat;lon;timestamp;pressure;altitude;pressure_sealevel;temperature;humidity
21838;BME280;11081;45.946;6.140;2022-07-29T00:01:19;95010.84;;;24.31;44.68
21838;BME280;11081;45.946;6.140;2022-07-29T00:03:47;95005.50;;;24.31;45.16
21838;BME280;11081;45.946;6.140;2022-07-29T00:06:16;95015.06;;;24.32;44.59
21838;BME280;11081;45.946;6.140;2022-07-29T00:08:44;95011.78;;;24.36;44.73
21838;BME280;11081;45.946;6.140;2022-07-29T00:11:12;95014.75;;;24.34;45.24
21838;BME280;11081;45.946;6.140;2022-07-29T00:13:40;95016.44;;;24.21;45.37
21838;BME280;11081;45.946;6.140;2022-07-29T00:16:17;95011.81;;;23.96;46.12
21838;BME280;11081;45.946;6.140;2022-07-29T00:18:45;95016.78;;;23.80;46.63
21838;BME280;11081;45.946;6.140;2022-07-29T00:21:13;95011.19;;;23.59;46.96
21838;BME280;11081;45.946;6.140;2022-07-29T00:23:41;95023.75;;;23.67;46.92
21838;BME280;11081;45.946;6.140;2022-07-29T00:26:09;95019.13;;;23.82;46.83
21838;BME280;11081;45.946;6.140;2022-07-29T00:28:37;95017.09;;;23.87;46.40
21838;BME280;11081;45.946;6.140;2022-07-29T00:31:05;95018.84;;;23.92;45.71
21838;BME280;11081;45.946;6.140;2022-07-29T00:33:36;95011.28;;;23.85;45.87
21838;BME280;11081;45.946;6.140;2022-07-29T00:36:04;95018.97;;;23.87;45.54
21838;BME280;11081;45.946;6.140;2022-07-29T00:38:31;95019.47;;;23.89;45.40
21838;BME280;11081;45.946;6.140;2022-07-29T00:40:59;95025.41;;;23.86;45.72
21838;BME280;11081;45.946;6.140;2022-07-29T00:43:27;95026.66;;;23.80;45.42
21838;BME280;11081;45.946;6.140;2022-07-29T00:45:55;95018.19;;;23.78;46.01
21838;BME280;11081;45.946;6.140;2022-07-29T00:48:23;95022.53;;;23.73;45.80
21838;BME280;11081;45.946;6.140;2022-07-29T00:50:53;95016.72;;;23.71;45.58
21838;BME280;11081;45.946;6.140;2022-07-29T00:53:21;95025.47;;;23.63;45.58
21838;BME280;11081;45.946;6.140;2022-07-29T00:55:49;95028.75;;;23.60;45.79
21838;BME280;11081;45.946;6.140;2022-07-29T00:58:18;95029.53;;;23.61;45.59
21838;BME280;11081;45.946;6.140;2022-07-29T01:00:46;95024.19;;;23.61;45.99
21838;BME280;11081;45.946;6.140;2022-07-29T01:03:14;95025.00;;;23.61;45.77
21838;BME280;11081;45.946;6.140;2022-07-29T01:05:44;95024.38;;;23.64;45.58
21838;BME280;11081;45.946;6.140;2022-07-29T01:08:18;95009.34;;;23.68;45.60
21838;BME280;11081;45.946;6.140;2022-07-29T01:10:47;95014.66;;;23.68;45.74
21838;BME280;11081;45.946;6.140;2022-07-29T01:13:17;95009.66;;;23.67;45.80
21838;BME280;11081;45.946;6.140;2022-07-29T01:15:49;95010.28;;;23.72;45.75
21838;BME280;11081;45.946;6.140;2022-07-29T01:18:22;95014.25;;;23.75;46.06
21838;BME280;11081;45.946;6.140;2022-07-29T01:21:05;95009.69;;;23.76;45.87
21838;BME280;11081;45.946;6.140;2022-07-29T01:23:48;94998.06;;;23.71;46.19
21838;BME280;11081;45.946;6.140;2022-07-29T01:26:31;95000.84;;;23.66;46.53
21838;BME280;11081;45.946;6.140;2022-07-29T01:29:05;94997.38;;;23.57;46.43
21838;BME280;11081;45.946;6.140;2022-07-29T01:31:42;95007.28;;;23.43;46.21
21838;BME280;11081;45.946;6.140;2022-07-29T01:34:30;95010.44;;;23.45;46.67
21838;BME280;11081;45.946;6.140;2022-07-29T01:37:06;95008.63;;;23.54;46.60
21838;BME280;11081;45.946;6.140;2022-07-29T01:39:37;95007.16;;;23.48;46.48
21838;BME280;11081;45.946;6.140;2022-07-29T01:42:12;95010.56;;;23.40;47.28
21838;BME280;11081;45.946;6.140;2022-07-29T01:44:52;95016.03;;;23.35;47.31
21838;BME280;11081;45.946;6.140;2022-07-29T01:47:26;95003.44;;;23.27;47.79
21838;BME280;11081;45.946;6.140;2022-07-29T01:50:03;95002.47;;;23.23;47.35
21838;BME280;11081;45.946;6.140;2022-07-29T01:52:36;95005.97;;;23.32;47.04
21838;BME280;11081;45.946;6.140;2022-07-29T01:55:11;94999.06;;;23.31;46.92
21838;BME280;11081;45.946;6.140;2022-07-29T01:57:42;94998.09;;;23.27;47.07
21838;BME280;11081;45.946;6.140;2022-07-29T02:00:16;95007.19;;;23.26;47.40
21838;BME280;11081;45.946;6.140;2022-07-29T02:02:46;95004.41;;;23.31;47.48
21838;BME280;11081;45.946;6.140;2022-07-29T02:05:17;95007.84;;;23.31;47.38
21838;BME280;11081;45.946;6.140;2022-07-29T02:07:48;95010.59;;;23.18;47.57
21838;BME280;11081;45.946;6.140;2022-07-29T02:10:18;95005.09;;;23.14;47.49
21838;BME280;11081;45.946;6.140;2022-07-29T02:12:54;95006.72;;;23.24;47.67
21838;BME280;11081;45.946;6.140;2022-07-29T02:15:26;95014.56;;;23.29;47.35
21838;BME280;11081;45.946;6.140;2022-07-29T02:17:56;95019.41;;;23.27;47.77
21838;BME280;11081;45.946;6.140;2022-07-29T02:20:27;95016.53;;;23.15;48.55
21838;BME280;11081;45.946;6.140;2022-07-29T02:22:57;95008.63;;;23.09;48.16
21838;BME280;11081;45.946;6.140;2022-07-29T02:25:26;95013.38;;;23.13;48.48
21838;BME280;11081;45.946;6.140;2022-07-29T02:28:05;95009.97;;;23.21;48.37
21838;BME280;11081;45.946;6.140;2022-07-29T02:30:36;95005.91;;;23.23;48.42
21838;BME280;11081;45.946;6.140;2022-07-29T02:33:07;95007.38;;;23.29;48.21
21838;BME280;11081;45.946;6.140;2022-07-29T02:35:37;95005.38;;;23.35;48.38
21838;BME280;11081;45.946;6.140;2022-07-29T02:38:07;95006.97;;;23.36;48.35
21838;BME280;11081;45.946;6.140;2022-07-29T02:40:53;95000.06;;;23.35;48.15
21838;BME280;11081;45.946;6.140;2022-07-29T02:43:22;95000.06;;;23.35;48.10
21838;BME280;11081;45.946;6.140;2022-07-29T02:45:54;95002.25;;;23.33;48.12
21838;BME280;11081;45.946;6.140;2022-07-29T02:48:27;94996.91;;;23.33;47.45
21838;BME280;11081;45.946;6.140;2022-07-29T02:51:05;94981.81;;;23.28;47.21
21838;BME280;11081;45.946;6.140;2022-07-29T02:53:38;94990.59;;;23.29;47.51
21838;BME280;11081;45.946;6.140;2022-07-29T02:56:12;94998.09;;;23.27;47.63
21838;BME280;11081;45.946;6.140;2022-07-29T02:58:45;95000.91;;;23.22;47.93
21838;BME280;11081;45.946;6.140;2022-07-29T03:01:20;94992.78;;;22.68;50.11
21838;BME280;11081;45.946;6.140;2022-07-29T03:03:51;94997.78;;;22.47;50.58
21838;BME280;11081;45.946;6.140;2022-07-29T03:06:22;94995.84;;;22.39;50.72
21838;BME280;11081;45.946;6.140;2022-07-29T03:09:04;94990.69;;;22.43;50.38
21838;BME280;11081;45.946;6.140;2022-07-29T03:11:39;94999.47;;;22.43;50.72
21838;BME280;11081;45.946;6.140;2022-07-29T03:14:17;95002.94;;;22.30;51.23
21838;BME280;11081;45.946;6.140;2022-07-29T03:16:49;94999.81;;;22.14;51.59
21838;BME280;11081;45.946;6.140;2022-07-29T03:19:19;94995.88;;;22.12;51.41
21838;BME280;11081;45.946;6.140;2022-07-29T03:21:48;95006.09;;;22.05;51.51
21838;BME280;11081;45.946;6.140;2022-07-29T03:24:26;95011.59;;;21.95;51.96
21838;BME280;11081;45.946;6.140;2022-07-29T03:26:55;95018.91;;;21.89;51.99
21838;BME280;11081;45.946;6.140;2022-07-29T03:29:24;95024.78;;;22.00;51.88
21838;BME280;11081;45.946;6.140;2022-07-29T03:32:02;95016.66;;;22.10;51.51
21838;BME280;11081;45.946;6.140;2022-07-29T03:34:34;95021.28;;;22.18;51.28
21838;BME280;11081;45.946;6.140;2022-07-29T03:37:03;95009.25;;;22.20;51.55
21838;BME280;11081;45.946;6.140;2022-07-29T03:39:36;95017.91;;;22.26;51.52
21838;BME280;11081;45.946;6.140;2022-07-29T03:42:06;95015.84;;;22.23;51.36
21838;BME280;11081;45.946;6.140;2022-07-29T03:44:37;95015.16;;;22.31;51.21
21838;BME280;11081;45.946;6.140;2022-07-29T03:47:09;95017.72;;;22.36;51.31
21838;BME280;11081;45.946;6.140;2022-07-29T03:49:37;95009.63;;;22.41;51.13
21838;BME280;11081;45.946;6.140;2022-07-29T03:52:07;95008.94;;;22.49;50.80
21838;BME280;11081;45.946;6.140;2022-07-29T03:54:35;95014.63;;;22.57;50.78
21838;BME280;11081;45.946;6.140;2022-07-29T03:57:05;95014.13;;;22.55;50.69
21838;BME280;11081;45.946;6.140;2022-07-29T03:59:35;95019.41;;;22.32;51.61
21838;BME280;11081;45.946;6.140;2022-07-29T04:02:05;95024.81;;;22.13;52.60
21838;BME280;11081;45.946;6.140;2022-07-29T04:04:37;95032.13;;;22.08;52.61
21838;BME280;11081;45.946;6.140;2022-07-29T04:07:05;95033.25;;;22.02;52.59
21838;BME280;11081;45.946;6.140;2022-07-29T04:09:33;95038.56;;;22.02;52.61
21838;BME280;11081;45.946;6.140;2022-07-29T04:12:01;95049.78;;;21.99;52.58
21838;BME280;11081;45.946;6.140;2022-07-29T04:14:31;95048.72;;;22.00;52.83
21838;BME280;11081;45.946;6.140;2022-07-29T04:16:59;95039.56;;;22.06;52.51
21838;BME280;11081;45.946;6.140;2022-07-29T04:19:27;95033.97;;;22.21;51.82
21838;BME280;11081;45.946;6.140;2022-07-29T04:21:57;95027.75;;;22.39;51.02
21838;BME280;11081;45.946;6.140;2022-07-29T04:24:26;95023.88;;;22.45;50.65
21838;BME280;11081;45.946;6.140;2022-07-29T04:26:54;95035.03;;;22.47;50.39
21838;BME280;11081;45.946;6.140;2022-07-29T04:29:22;95036.09;;;22.46;50.64
21838;BME280;11081;45.946;6.140;2022-07-29T04:31:50;95051.59;;;22.17;51.54
21838;BME280;11081;45.946;6.140;2022-07-29T04:34:18;95048.19;;;21.70;53.11
21838;BME280;11081;45.946;6.140;2022-07-29T04:36:47;95045.66;;;21.92;52.56
21838;BME280;11081;45.946;6.140;2022-07-29T04:39:16;95048.16;;;22.16;52.02
21838;BME280;11081;45.946;6.140;2022-07-29T04:41:49;95052.59;;;22.35;51.22
21838;BME280;11081;45.946;6.140;2022-07-29T04:44:20;95065.97;;;22.43;51.09
21838;BME280;11081;45.946;6.140;2022-07-29T04:46:54;95060.44;;;22.54;50.75
21838;BME280;11081;45.946;6.140;2022-07-29T04:49:22;95059.25;;;22.60;50.62
21838;BME280;11081;45.946;6.140;2022-07-29T04:51:50;95064.28;;;22.61;50.43
21838;BME280;11081;45.946;6.140;2022-07-29T04:54:19;95063.97;;;22.63;50.41
21838;BME280;11081;45.946;6.140;2022-07-29T04:56:47;95059.63;;;22.67;50.75
21838;BME280;11081;45.946;6.140;2022-07-29T04:59:15;95073.41;;;22.69;51.26
21838;BME280;11081;45.946;6.140;2022-07-29T05:01:43;95083.88;;;22.65;51.68
21838;BME280;11081;45.946;6.140;2022-07-29T05:04:11;95079.56;;;22.56;52.79
21838;BME280;11081;45.946;6.140;2022-07-29T05:06:40;95075.81;;;22.57;52.69
21838;BME280;11081;45.946;6.140;2022-07-29T05:09:08;95074.13;;;22.61;52.72
21838;BME280;11081;45.946;6.140;2022-07-29T05:11:37;95077.16;;;22.68;52.48
21838;BME280;11081;45.946;6.140;2022-07-29T05:14:05;95072.84;;;22.72;52.13
21838;BME280;11081;45.946;6.140;2022-07-29T05:16:33;95082.88;;;22.75;52.22
21838;BME280;11081;45.946;6.140;2022-07-29T05:19:01;95080.72;;;22.77;52.19
21838;BME280;11081;45.946;6.140;2022-07-29T05:21:29;95098.78;;;22.39;53.99
21838;BME280;11081;45.946;6.140;2022-07-29T05:23:57;95103.44;;;22.33;54.99
21838;BME280;11081;45.946;6.140;2022-07-29T05:26:25;95097.28;;;22.46;55.12
21838;BME280;11081;45.946;6.140;2022-07-29T05:28:55;95101.22;;;22.63;55.16
21838;BME280;11081;45.946;6.140;2022-07-29T05:31:23;95102.78;;;22.77;54.31
21838;BME280;11081;45.946;6.140;2022-07-29T05:33:51;95108.13;;;22.91;53.44
21838;BME280;11081;45.946;6.140;2022-07-29T05:36:19;95102.22;;;22.94;52.70
21838;BME280;11081;45.946;6.140;2022-07-29T05:38:47;95100.03;;;22.96;52.70
21838;BME280;11081;45.946;6.140;2022-07-29T05:41:15;95108.50;;;22.98;52.73
21838;BME280;11081;45.946;6.140;2022-07-29T05:43:43;95097.25;;;23.01;53.03
21838;BME280;11081;45.946;6.140;2022-07-29T05:46:13;95096.03;;;23.07;52.26
21838;BME280;11081;45.946;6.140;2022-07-29T05:48:41;95096.13;;;23.16;52.34
21838;BME280;11081;45.946;6.140;2022-07-29T05:51:10;95116.03;;;23.19;53.17
21838;BME280;11081;45.946;6.140;2022-07-29T05:53:38;95109.84;;;23.09;54.72
21838;BME280;11081;45.946;6.140;2022-07-29T05:56:06;95118.56;;;23.01;54.99
21838;BME280;11081;45.946;6.140;2022-07-29T05:58:34;95118.56;;;23.01;54.95
21838;BME280;11081;45.946;6.140;2022-07-29T06:01:02;95128.59;;;23.04;54.46
21838;BME280;11081;45.946;6.140;2022-07-29T06:03:32;95124.84;;;23.05;54.21
21838;BME280;11081;45.946;6.140;2022-07-29T06:06:01;95117.94;;;23.04;53.85
21838;BME280;11081;45.946;6.140;2022-07-29T06:08:29;95121.06;;;23.20;53.33
21838;BME280;11081;45.946;6.140;2022-07-29T06:10:57;95116.28;;;23.31;53.51
21838;BME280;11081;45.946;6.140;2022-07-29T06:13:25;95117.38;;;23.30;54.02
21838;BME280;11081;45.946;6.140;2022-07-29T06:15:53;95116.88;;;23.28;53.24
21838;BME280;11081;45.946;6.140;2022-07-29T06:18:22;95114.13;;;23.33;53.44
21838;BME280;11081;45.946;6.140;2022-07-29T06:20:52;95113.34;;;23.32;54.32
21838;BME280;11081;45.946;6.140;2022-07-29T06:23:20;95108.59;;;23.29;54.30
21838;BME280;11081;45.946;6.140;2022-07-29T06:25:48;95112.53;;;23.32;54.56
21838;BME280;11081;45.946;6.140;2022-07-29T06:28:16;95103.09;;;23.26;54.84
21838;BME280;11081;45.946;6.140;2022-07-29T06:30:44;95102.47;;;23.29;54.62
21838;BME280;11081;45.946;6.140;2022-07-29T06:33:16;95101.38;;;23.07;54.73
21838;BME280;11081;45.946;6.140;2022-07-29T06:35:44;95106.09;;;23.10;55.15
21838;BME280;11081;45.946;6.140;2022-07-29T06:38:22;95113.38;;;23.19;55.23
21838;BME280;11081;45.946;6.140;2022-07-29T06:40:59;95118.66;;;23.32;54.92
21838;BME280;11081;45.946;6.140;2022-07-29T06:43:30;95125.16;;;23.40;54.34
21838;BME280;11081;45.946;6.140;2022-07-29T06:46:02;95121.91;;;23.52;54.33
21838;BME280;11081;45.946;6.140;2022-07-29T06:48:31;95127.59;;;23.72;54.17
21838;BME280;11081;45.946;6.140;2022-07-29T06:50:59;95141.16;;;23.85;53.66
21838;BME280;11081;45.946;6.140;2022-07-29T06:53:30;95145.59;;;23.67;54.02
21838;BME280;11081;45.946;6.140;2022-07-29T06:55:59;95151.69;;;23.67;54.21
21838;BME280;11081;45.946;6.140;2022-07-29T06:58:28;95162.19;;;23.50;55.00
21838;BME280;11081;45.946;6.140;2022-07-29T07:00:57;95170.88;;;23.56;56.29
21838;BME280;11081;45.946;6.140;2022-07-29T07:03:25;95174.00;;;23.71;54.96
21838;BME280;11081;45.946;6.140;2022-07-29T07:05:54;95176.91;;;23.84;54.56
21838;BME280;11081;45.946;6.140;2022-07-29T07:08:22;95182.50;;;23.96;53.97
21838;BME280;11081;45.946;6.140;2022-07-29T07:10:52;95191.69;;;23.90;54.36
21838;BME280;11081;45.946;6.140;2022-07-29T07:13:21;95185.16;;;23.96;53.03
21838;BME280;11081;45.946;6.140;2022-07-29T07:15:50;95195.22;;;23.99;53.11
21838;BME280;11081;45.946;6.140;2022-07-29T07:18:18;95191.19;;;24.10;52.05
21838;BME280;11081;45.946;6.140;2022-07-29T07:20:46;95199.94;;;24.02;52.96
21838;BME280;11081;45.946;6.140;2022-07-29T07:23:15;95200.78;;;23.89;52.55
21838;BME280;11081;45.946;6.140;2022-07-29T07:25:43;95211.69;;;23.79;53.19
21838;BME280;11081;45.946;6.140;2022-07-29T07:28:13;95198.09;;;23.66;54.09
21838;BME280;11081;45.946;6.140;2022-07-29T07:30:41;95203.22;;;23.77;53.64
21838;BME280;11081;45.946;6.140;2022-07-29T07:33:09;95192.56;;;23.77;54.44
21838;BME280;11081;45.946;6.140;2022-07-29T07:35:37;95210.97;;;23.64;54.93
21838;BME280;11081;45.946;6.140;2022-07-29T07:38:05;95204.31;;;23.76;54.27
21838;BME280;11081;45.946;6.140;2022-07-29T07:40:33;95214.47;;;23.73;54.40
21838;BME280;11081;45.946;6.140;2022-07-29T07:43:01;95193.94;;;23.74;54.21
21838;BME280;11081;45.946;6.140;2022-07-29T07:45:30;95194.75;;;23.75;54.49
21838;BME280;11081;45.946;6.140;2022-07-29T07:48:00;95197.75;;;23.59;55.42
21838;BME280;11081;45.946;6.140;2022-07-29T07:50:28;95205.25;;;23.57;55.90
21838;BME280;11081;45.946;6.140;2022-07-29T07:52:56;95211.16;;;23.54;55.55
21838;BME280;11081;45.946;6.140;2022-07-29T07:55:25;95211.16;;;23.54;56.93
21838;BME280;11081;45.946;6.140;2022-07-29T07:57:54;95218.66;;;23.52;57.33
21838;BME280;11081;45.946;6.140;2022-07-29T08:00:22;95217.31;;;23.27;58.71
21838;BME280;11081;45.946;6.140;2022-07-29T08:02:51;95222.28;;;23.34;59.01
21838;BME280;11081;45.946;6.140;2022-07-29T08:05:19;95220.59;;;23.24;59.64
21838;BME280;11081;45.946;6.140;2022-07-29T08:07:47;95226.72;;;23.25;60.22
21838;BME280;11081;45.946;6.140;2022-07-29T08:10:18;95228.41;;;23.21;60.17
21838;BME280;11081;45.946;6.140;2022-07-29T08:13:02;95232.56;;;23.13;59.94
21838;BME280;11081;45.946;6.140;2022-07-29T08:15:30;95237.28;;;23.02;60.51
21838;BME280;11081;45.946;6.140;2022-07-29T08:18:00;95237.47;;;23.20;61.02
21838;BME280;11081;45.946;6.140;2022-07-29T08:20:34;95240.03;;;23.25;61.27
21838;BME280;11081;45.946;6.140;2022-07-29T08:23:03;95235.13;;;23.04;62.15
21838;BME280;11081;45.946;6.140;2022-07-29T08:25:32;95230.38;;;23.01;62.60
21838;BME280;11081;45.946;6.140;2022-07-29T08:28:06;95223.66;;;22.90;63.88
21838;BME280;11081;45.946;6.140;2022-07-29T08:30:34;95199.41;;;22.78;65.38
21838;BME280;11081;45.946;6.140;2022-07-29T08:33:03;95189.84;;;22.77;65.61
21838;BME280;11081;45.946;6.140;2022-07-29T08:35:31;95181.84;;;22.77;66.65
21838;BME280;11081;45.946;6.140;2022-07-29T08:38:02;95194.09;;;22.78;67.54
21838;BME280;11081;45.946;6.140;2022-07-29T08:40:31;95195.75;;;22.74;68.66
21838;BME280;11081;45.946;6.140;2022-07-29T08:43:03;95194.19;;;22.73;69.57
21838;BME280;11081;45.946;6.140;2022-07-29T08:45:41;95198.75;;;22.26;71.49
21838;BME280;11081;45.946;6.140;2022-07-29T08:48:15;95194.34;;;22.03;72.44
21838;BME280;11081;45.946;6.140;2022-07-29T08:50:44;95206.44;;;22.14;73.46
21838;BME280;11081;45.946;6.140;2022-07-29T08:53:14;95188.91;;;22.13;73.16
21838;BME280;11081;45.946;6.140;2022-07-29T08:55:43;95197.38;;;22.15;71.37
21838;BME280;11081;45.946;6.140;2022-07-29T08:58:12;95199.66;;;22.03;75.27
21838;BME280;11081;45.946;6.140;2022-07-29T09:00:42;95196.19;;;22.07;73.44
21838;BME280;11081;45.946;6.140;2022-07-29T09:03:18;95205.09;;;22.30;71.52
21838;BME280;11081;45.946;6.140;2022-07-29T09:05:47;95197.72;;;22.55;70.68
21838;BME280;11081;45.946;6.140;2022-07-29T09:08:16;95189.91;;;22.44;71.88
21838;BME280;11081;45.946;6.140;2022-07-29T09:10:44;95204.72;;;22.50;72.14
21838;BME280;11081;45.946;6.140;2022-07-29T09:13:13;95198.22;;;22.70;71.32
21838;BME280;11081;45.946;6.140;2022-07-29T09:15:40;95194.25;;;22.40;71.83
21838;BME280;11081;45.946;6.140;2022-07-29T09:18:09;95190.03;;;22.39;71.69
21838;BME280;11081;45.946;6.140;2022-07-29T09:20:57;95181.34;;;22.47;71.10
21838;BME280;11081;45.946;6.140;2022-07-29T09:23:59;95187.09;;;22.55;70.49
21838;BME280;11081;45.946;6.140;2022-07-29T09:26:28;95174.56;;;22.55;70.39
21838;BME280;11081;45.946;6.140;2022-07-29T09:28:57;95191.91;;;22.80;70.36
21838;BME280;11081;45.946;6.140;2022-07-29T09:31:32;95218.75;;;22.97;70.05
21838;BME280;11081;45.946;6.140;2022-07-29T09:34:00;95215.78;;;23.13;69.19
21838;BME280;11081;45.946;6.140;2022-07-29T09:36:30;95230.56;;;23.19;68.59
21838;BME280;11081;45.946;6.140;2022-07-29T09:38:59;95246.31;;;23.29;69.24
21838;BME280;11081;45.946;6.140;2022-07-29T09:41:29;95254.03;;;22.89;69.31
21838;BME280;11081;45.946;6.140;2022-07-29T09:43:58;95259.09;;;22.44;69.74
21838;BME280;11081;45.946;6.140;2022-07-29T09:46:26;95261.09;;;22.52;69.91
21838;BME280;11081;45.946;6.140;2022-07-29T09:49:10;95288.34;;;22.77;69.94
21838;BME280;11081;45.946;6.140;2022-07-29T09:51:40;95297.81;;;22.83;68.82
21838;BME280;11081;45.946;6.140;2022-07-29T09:54:23;95312.06;;;22.92;69.04
21838;BME280;11081;45.946;6.140;2022-07-29T09:56:52;95318.34;;;22.96;68.80
21838;BME280;11081;45.946;6.140;2022-07-29T09:59:21;95320.22;;;22.96;68.76
21838;BME280;11081;45.946;6.140;2022-07-29T10:01:53;95338.84;;;22.82;69.88
21838;BME280;11081;45.946;6.140;2022-07-29T10:04:21;95343.88;;;22.65;70.64
21838;BME280;11081;45.946;6.140;2022-07-29T10:06:58;95362.34;;;22.42;71.38
21838;BME280;11081;45.946;6.140;2022-07-29T10:09:31;95371.56;;;22.31;72.00
21838;BME280;11081;45.946;6.140;2022-07-29T10:12:07;95372.28;;;22.18;73.58
21838;BME280;11081;45.946;6.140;2022-07-29T10:14:37;95389.50;;;22.02;72.65
21838;BME280;11081;45.946;6.140;2022-07-29T10:17:06;95388.25;;;22.18;71.54
21838;BME280;11081;45.946;6.140;2022-07-29T10:19:36;95386.50;;;22.27;72.34
21838;BME280;11081;45.946;6.140;2022-07-29T10:22:08;95401.63;;;22.13;72.36
21838;BME280;11081;45.946;6.140;2022-07-29T10:24:37;95406.47;;;22.06;72.21
21838;BME280;11081;45.946;6.140;2022-07-29T10:27:07;95402.34;;;21.76;73.05
21838;BME280;11081;45.946;6.140;2022-07-29T10:29:35;95403.53;;;21.41;74.33
21838;BME280;11081;45.946;6.140;2022-07-29T10:32:18;95406.94;;;21.17;75.12
21838;BME280;11081;45.946;6.140;2022-07-29T10:34:58;95415.63;;;20.94;76.88
21838;BME280;11081;45.946;6.140;2022-07-29T10:37:41;95407.69;;;20.94;77.56
21838;BME280;11081;45.946;6.140;2022-07-29T10:40:18;95413.09;;;20.84;78.66
21838;BME280;11081;45.946;6.140;2022-07-29T10:43:19;95405.16;;;20.79;79.90
21838;BME280;11081;45.946;6.140;2022-07-29T10:45:56;95405.41;;;20.48;82.11
21838;BME280;11081;45.946;6.140;2022-07-29T10:48:24;95406.97;;;20.49;82.24
21838;BME280;11081;45.946;6.140;2022-07-29T10:50:54;95409.13;;;20.47;83.45
21838;BME280;11081;45.946;6.140;2022-07-29T10:53:47;95420.25;;;20.39;86.24
21838;BME280;11081;45.946;6.140;2022-07-29T10:56:25;95418.72;;;20.33;86.58
21838;BME280;11081;45.946;6.140;2022-07-29T10:59:23;95417.75;;;20.19;88.59
21838;BME280;11081;45.946;6.140;2022-07-29T11:02:01;95418.81;;;20.23;86.59
21838;BME280;11081;45.946;6.140;2022-07-29T11:04:59;95417.13;;;20.32;88.00
21838;BME280;11081;45.946;6.140;2022-07-29T11:07:28;95416.81;;;20.38;86.48
21838;BME280;11081;45.946;6.140;2022-07-29T11:10:23;95415.00;;;20.34;87.30
21838;BME280;11081;45.946;6.140;2022-07-29T11:12:56;95410.72;;;20.38;86.61
21838;BME280;11081;45.946;6.140;2022-07-29T11:15:25;95411.66;;;20.62;86.56
21838;BME280;11081;45.946;6.140;2022-07-29T11:18:04;95408.81;;;20.88;85.60
21838;BME280;11081;45.946;6.140;2022-07-29T11:20:41;95413.00;;;20.94;85.55
21838;BME280;11081;45.946;6.140;2022-07-29T11:23:21;95412.59;;;20.77;86.00
21838;BME280;11081;45.946;6.140;2022-07-29T11:26:15;95412.13;;;20.69;88.27
21838;BME280;11081;45.946;6.140;2022-07-29T11:28:50;95413.78;;;20.60;87.57
21838;BME280;11081;45.946;6.140;2022-07-29T11:31:36;95424.47;;;20.50;89.30
21838;BME280;11081;45.946;6.140;2022-07-29T11:34:19;95418.56;;;20.63;88.79
21838;BME280;11081;45.946;6.140;2022-07-29T11:40:14;95412.19;;;20.59;89.41
21838;BME280;11081;45.946;6.140;2022-07-29T11:42:49;95403.50;;;20.54;89.42
21838;BME280;11081;45.946;6.140;2022-07-29T11:45:23;95408.59;;;20.40;89.08
21838;BME280;11081;45.946;6.140;2022-07-29T11:48:15;95406.97;;;20.49;90.24
21838;BME280;11081;45.946;6.140;2022-07-29T11:50:57;95401.88;;;20.58;88.82
21838;BME280;11081;45.946;6.140;2022-07-29T11:53:26;95405.97;;;20.45;89.43
21838;BME280;11081;45.946;6.140;2022-07-29T11:55:59;95403.38;;;20.30;90.78
21838;BME280;11081;45.946;6.140;2022-07-29T11:58:30;95403.69;;;20.23;91.55
21838;BME280;11081;45.946;6.140;2022-07-29T12:00:59;95401.91;;;20.08;92.08
21838;BME280;11081;45.946;6.140;2022-07-29T12:03:31;95409.63;;;20.05;93.04
21838;BME280;11081;45.946;6.140;2022-07-29T12:06:03;95389.13;;;20.21;92.42
21838;BME280;11081;45.946;6.140;2022-07-29T12:08:39;95390.50;;;20.52;91.56
21838;BME280;11081;45.946;6.140;2022-07-29T12:11:15;95393.19;;;20.81;90.29
21838;BME280;11081;45.946;6.140;2022-07-29T12:13:48;95386.44;;;20.94;88.75
21838;BME280;11081;45.946;6.140;2022-07-29T12:16:17;95391.91;;;21.08;87.54
21838;BME280;11081;45.946;6.140;2022-07-29T12:18:56;95398.31;;;21.01;88.28
21838;BME280;11081;45.946;6.140;2022-07-29T12:21:25;95387.63;;;20.83;88.76
21838;BME280;11081;45.946;6.140;2022-07-29T12:23:55;95383.47;;;20.72;89.79
21838;BME280;11081;45.946;6.140;2022-07-29T12:26:35;95388.09;;;20.90;88.63
21838;BME280;11081;45.946;6.140;2022-07-29T12:29:07;95375.75;;;21.04;88.31
21838;BME280;11081;45.946;6.140;2022-07-29T12:31:59;95383.16;;;21.07;87.94
21838;BME280;11081;45.946;6.140;2022-07-29T12:34:28;95383.03;;;21.17;88.23
21838;BME280;11081;45.946;6.140;2022-07-29T12:36:57;95383.53;;;21.19;88.72
21838;BME280;11081;45.946;6.140;2022-07-29T12:39:25;95379.19;;;21.34;88.20
21838;BME280;11081;45.946;6.140;2022-07-29T12:41:54;95386.25;;;21.67;86.39
21838;BME280;11081;45.946;6.140;2022-07-29T12:44:45;95377.44;;;21.90;85.18
21838;BME280;11081;45.946;6.140;2022-07-29T12:47:13;95376.28;;;21.97;84.68
21838;BME280;11081;45.946;6.140;2022-07-29T12:49:42;95374.13;;;21.99;85.07
21838;BME280;11081;45.946;6.140;2022-07-29T12:52:27;95379.91;;;22.06;84.22
21838;BME280;11081;45.946;6.140;2022-07-29T12:54:56;95365.97;;;22.14;83.64
21838;BME280;11081;45.946;6.140;2022-07-29T12:57:25;95373.75;;;22.29;84.08
21838;BME280;11081;45.946;6.140;2022-07-29T13:00:07;95363.44;;;22.41;83.04
21838;BME280;11081;45.946;6.140;2022-07-29T13:02:38;95364.78;;;22.58;81.96
21838;BME280;11081;45.946;6.140;2022-07-29T13:05:07;95367.19;;;22.73;81.60
21838;BME280;11081;45.946;6.140;2022-07-29T13:07:37;95373.34;;;22.87;80.91
21838;BME280;11081;45.946;6.140;2022-07-29T13:10:23;95364.13;;;22.98;80.15
21838;BME280;11081;45.946;6.140;2022-07-29T13:13:03;95373.00;;;23.07;79.18
21838;BME280;11081;45.946;6.140;2022-07-29T13:15:33;95374.56;;;23.08;79.53
21838;BME280;11081;45.946;6.140;2022-07-29T13:18:03;95370.56;;;23.25;78.92
21838;BME280;11081;45.946;6.140;2022-07-29T13:20:31;95382.75;;;23.58;78.25
21838;BME280;11081;45.946;6.140;2022-07-29T13:23:00;95379.75;;;23.87;78.05
21838;BME280;11081;45.946;6.140;2022-07-29T13:25:30;95372.59;;;24.10;78.24
21838;BME280;11081;45.946;6.140;2022-07-29T13:27:59;95377.09;;;24.23;77.41